Météo

Actualisé à 7h30, Lille

icon

T : 16 °C / H : 94 %
Pression : 1022 Hpa
Vent calme : 0 Km/h
Brume
Nuages fragmentés à 500 pieds


2024/07/24 06:30 LFQQ 240630Z AUTO 00000KT CAVOK 16/15 Q1022 TEMPO 4000 BR BKN005

Mots clés

Internet web infographiste flyers illustrateur graphiste webmaster PAO assistance informatique logo image invitation affiche création réalisation conception site vitrine voeux carte visite publication publicité impression plaquette charte graphique identité visuelle maintenance freelance


CSS Valide ! Valid HTML 5.0
Mozilla Firefox
Navigateur Alternatif à IE
SEEm - System Eyes & Ears Monitoring
Alternative au gestionnaire des tâches windows
SpyBot - Search & Destroy
XnView Standard
visionneuse de photos
traitement d'images par lot
The GIMP
Alternative à Photoshop élément
InkScape
dessin vectoriel